Time;durP1;ratioP1;P1;durP2;ratioP2;P2;SDS_P1;SDS_P2;PMS_P1;PMS_P2;Temp;Humidity;BMP_temperature;BMP_pressure;BME280_temperature;BME280_humidity;BME280_pressure;Samples;Min_cycle;Max_cycle;Signal;HPM_P1;HPM_P2
2022/03/08 00:01:03;;;;;;;36.25;16.95;;;5.60;46.90;;;;;;5036349;28;20462;-21
2022/03/08 00:03:29;;;;;;;33.17;17.60;;;5.60;47.20;;;;;;5036012;28;20044;-23
2022/03/08 00:05:56;;;;;;;30.48;16.10;;;5.60;47.90;;;;;;5036282;28;20381;-23
2022/03/08 00:08:22;;;;;;;31.20;16.45;;;5.60;47.50;;;;;;5035757;28;20029;-21
2022/03/08 00:10:48;;;;;;;30.80;16.33;;;5.60;47.20;;;;;;5035965;28;20032;-21
2022/03/08 00:13:14;;;;;;;30.38;15.20;;;5.60;47.50;;;;;;5036203;28;20029;-21
2022/03/08 00:15:40;;;;;;;33.28;15.95;;;5.50;47.60;;;;;;5035903;28;20025;-22
2022/03/08 00:18:06;;;;;;;29.30;14.63;;;5.50;47.60;;;;;;5035784;28;20037;-21
2022/03/08 00:20:33;;;;;;;32.80;16.58;;;5.40;47.40;;;;;;5035859;28;20041;-21
2022/03/08 00:23:00;;;;;;;28.17;16.25;;;5.40;47.20;;;;;;5036047;28;20552;-21
2022/03/08 00:25:26;;;;;;;26.05;14.27;;;5.40;47.10;;;;;;5035875;28;20028;-21
2022/03/08 00:27:53;;;;;;;31.50;17.02;;;5.40;47.40;;;;;;5036247;28;20025;-21
2022/03/08 00:30:22;;;;;;;34.17;18.10;;;5.40;47.30;;;;;;5035684;28;20037;-22
2022/03/08 00:32:50;;;;;;;38.78;17.65;;;5.40;47.10;;;;;;5035460;28;20024;-21
2022/03/08 00:35:18;;;;;;;32.78;17.25;;;5.40;47.10;;;;;;5034620;28;20025;-21
2022/03/08 00:37:47;;;;;;;26.98;15.35;;;5.40;47.00;;;;;;5036520;28;20500;-22
2022/03/08 00:40:14;;;;;;;29.42;15.95;;;5.30;47.10;;;;;;5035172;28;20022;-22
2022/03/08 00:42:40;;;;;;;33.50;16.65;;;5.40;47.20;;;;;;5034187;28;20033;-21
2022/03/08 00:45:08;;;;;;;27.17;14.45;;;5.30;47.00;;;;;;5035254;28;20021;-21
2022/03/08 00:47:36;;;;;;;28.80;15.48;;;5.30;46.90;;;;;;5035163;28;20080;-22
2022/03/08 00:50:04;;;;;;;26.80;13.40;;;5.30;47.10;;;;;;5035378;28;20014;-21
2022/03/08 00:52:30;;;;;;;26.73;14.13;;;5.30;46.80;;;;;;5035206;28;20112;-21
2022/03/08 00:54:56;;;;;;;32.42;16.55;;;5.30;46.90;;;;;;5033870;28;20029;-21
2022/03/08 00:57:22;;;;;;;26.23;13.48;;;5.30;46.80;;;;;;5035404;28;20032;-21
2022/03/08 00:59:48;;;;;;;20.13;10.82;;;5.30;46.60;;;;;;5035051;28;20041;-21
2022/03/08 01:02:14;;;;;;;21.05;10.57;;;5.30;46.20;;;;;;5034649;28;20033;-23
2022/03/08 01:04:40;;;;;;;24.35;12.40;;;5.30;46.20;;;;;;5035298;28;20108;-21
2022/03/08 01:07:07;;;;;;;22.48;11.32;;;5.30;46.40;;;;;;5035177;28;20074;-21
2022/03/08 01:09:34;;;;;;;16.45;8.88;;;5.30;46.50;;;;;;5035082;28;20037;-21
2022/03/08 01:11:59;;;;;;;21.45;10.65;;;5.30;45.90;;;;;;5035117;28;20028;-21
2022/03/08 01:14:26;;;;;;;23.90;12.43;;;5.20;46.30;;;;;;5034891;28;20026;-21
2022/03/08 01:16:52;;;;;;;21.00;10.18;;;5.20;46.50;;;;;;5035133;28;20381;-21
2022/03/08 01:19:18;;;;;;;16.67;9.13;;;5.30;45.90;;;;;;5033288;28;20133;-23
2022/03/08 01:21:44;;;;;;;24.90;11.90;;;5.20;45.80;;;;;;5034533;28;20056;-21
2022/03/08 01:24:10;;;;;;;24.42;13.45;;;5.20;45.60;;;;;;5034410;28;20030;-21
2022/03/08 01:26:36;;;;;;;23.15;12.43;;;5.20;46.10;;;;;;5034667;28;20101;-21
2022/03/08 01:29:03;;;;;;;19.33;10.73;;;5.20;45.90;;;;;;5034449;28;20036;-21
2022/03/08 01:31:29;;;;;;;18.38;9.38;;;5.20;45.70;;;;;;5034937;28;20100;-21
2022/03/08 01:33:57;;;;;;;16.27;8.95;;;5.20;45.70;;;;;;5033121;28;20490;-22
2022/03/08 01:36:25;;;;;;;14.60;7.60;;;5.20;45.50;;;;;;5034128;28;20040;-23
2022/03/08 01:38:51;;;;;;;23.17;13.00;;;5.20;45.50;;;;;;5034561;28;20029;-21
2022/03/08 01:41:17;;;;;;;18.55;9.85;;;5.10;45.70;;;;;;5033020;28;20022;-22
2022/03/08 01:43:45;;;;;;;16.05;9.00;;;5.10;45.70;;;;;;5034388;28;20018;-21
2022/03/08 01:46:13;;;;;;;22.30;12.30;;;5.10;45.40;;;;;;5034358;28;20029;-22
2022/03/08 01:48:39;;;;;;;15.27;7.50;;;5.10;45.30;;;;;;5035013;28;20029;-22
2022/03/08 01:51:06;;;;;;;23.67;12.20;;;5.10;45.30;;;;;;5034301;28;20032;-21
2022/03/08 01:53:34;;;;;;;27.40;14.27;;;5.10;45.30;;;;;;5033960;28;20553;-21
2022/03/08 01:56:00;;;;;;;21.67;11.00;;;5.10;45.80;;;;;;5033652;28;20060;-21
2022/03/08 01:58:26;;;;;;;12.93;7.65;;;5.10;45.70;;;;;;5033793;28;20025;-21
2022/03/08 02:00:52;;;;;;;26.67;13.40;;;5.10;45.70;;;;;;5033924;28;20041;-21
2022/03/08 02:03:18;;;;;;;17.73;9.55;;;5.00;45.80;;;;;;5033640;28;20486;-21
2022/03/08 02:05:44;;;;;;;18.00;9.20;;;5.00;45.80;;;;;;5032592;28;20053;-22
2022/03/08 02:08:10;;;;;;;18.88;9.45;;;5.00;45.80;;;;;;5033861;28;20065;-22
2022/03/08 02:10:36;;;;;;;18.05;8.82;;;4.90;45.80;;;;;;5033765;28;20048;-21
2022/03/08 02:13:02;;;;;;;20.98;11.73;;;4.90;45.70;;;;;;5033648;28;20503;-21
2022/03/08 02:15:29;;;;;;;21.75;11.60;;;4.90;46.00;;;;;;5033925;28;20482;-21
2022/03/08 02:17:59;;;;;;;17.42;9.50;;;4.90;46.00;;;;;;5033279;28;20064;-21
2022/03/08 02:20:26;;;;;;;19.02;9.55;;;4.90;46.10;;;;;;5032108;28;20037;-21
2022/03/08 02:22:53;;;;;;;24.67;12.48;;;4.90;45.80;;;;;;5033721;28;20037;-22
2022/03/08 02:25:20;;;;;;;22.42;10.60;;;4.80;46.30;;;;;;5033983;28;20021;-21
2022/03/08 02:27:55;;;;;;;26.33;13.30;;;4.80;46.00;;;;;;5033631;28;20033;-21
2022/03/08 02:30:23;;;;;;;25.30;12.73;;;4.80;46.00;;;;;;5033242;28;20022;-21
2022/03/08 02:32:49;;;;;;;16.65;8.30;;;4.70;46.70;;;;;;5033651;28;20030;-21
2022/03/08 02:35:21;;;;;;;17.52;9.15;;;4.70;46.40;;;;;;5032051;28;20108;-21
2022/03/08 02:37:50;;;;;;;14.55;6.97;;;4.70;46.40;;;;;;5033318;28;20500;-21
2022/03/08 02:40:18;;;;;;;19.63;9.75;;;4.60;46.10;;;;;;5032960;28;20026;-21
2022/03/08 02:42:44;;;;;;;12.30;5.97;;;4.60;46.40;;;;;;5033468;28;20041;-21
2022/03/08 02:45:12;;;;;;;11.25;5.53;;;4.60;46.00;;;;;;5033447;28;20053;-21
2022/03/08 02:47:38;;;;;;;11.00;5.68;;;4.60;45.90;;;;;;5033093;28;20037;-21
2022/03/08 02:50:08;;;;;;;13.80;7.05;;;4.60;45.90;;;;;;5033479;28;20147;-20
2022/03/08 02:52:35;;;;;;;11.55;5.75;;;4.60;46.00;;;;;;5033279;28;20018;-21
2022/03/08 02:55:01;;;;;;;10.23;5.25;;;4.60;45.80;;;;;;5033701;28;20113;-20
2022/03/08 02:57:27;;;;;;;27.60;13.70;;;4.60;45.70;;;;;;5033412;28;20025;-22
2022/03/08 02:59:53;;;;;;;23.55;11.40;;;4.60;46.00;;;;;;5033188;28;20051;-21
2022/03/08 03:02:19;;;;;;;17.20;8.40;;;4.60;46.20;;;;;;5032671;28;20033;-21
2022/03/08 03:04:46;;;;;;;13.50;6.95;;;4.60;46.20;;;;;;5033301;28;20056;-21
2022/03/08 03:07:14;;;;;;;14.55;7.32;;;4.60;46.10;;;;;;5035220;28;20021;-22
2022/03/08 03:09:40;;;;;;;24.15;11.82;;;4.60;46.10;;;;;;5037397;28;20021;-22
2022/03/08 03:12:07;;;;;;;24.95;11.63;;;4.60;46.80;;;;;;5037373;28;20079;-22
2022/03/08 03:14:33;;;;;;;26.40;14.63;;;4.50;46.90;;;;;;5037166;28;20447;-21
2022/03/08 03:16:59;;;;;;;22.15;11.70;;;4.50;46.20;;;;;;5036873;28;20073;-22
2022/03/08 03:19:24;;;;;;;18.60;10.07;;;4.50;46.20;;;;;;5035457;28;20084;-21
2022/03/08 03:21:50;;;;;;;18.23;10.10;;;4.50;47.00;;;;;;5037096;28;20064;-21
2022/03/08 03:24:16;;;;;;;25.65;11.98;;;4.50;46.40;;;;;;5036606;28;20505;-21
2022/03/08 03:26:43;;;;;;;27.70;14.95;;;4.50;46.60;;;;;;5037079;28;20033;-21
2022/03/08 03:29:09;;;;;;;18.42;10.18;;;4.50;47.30;;;;;;5037031;28;20018;-22
2022/03/08 03:31:36;;;;;;;21.75;11.15;;;4.40;47.30;;;;;;5036896;28;20028;-22
2022/03/08 03:34:02;;;;;;;17.85;8.75;;;4.40;46.70;;;;;;5036867;28;20026;-20
2022/03/08 03:36:28;;;;;;;12.27;6.80;;;4.40;47.00;;;;;;5036452;28;20029;-21
2022/03/08 03:38:54;;;;;;;12.90;6.53;;;4.40;46.40;;;;;;5036533;28;20124;-22
2022/03/08 03:41:19;;;;;;;14.55;6.55;;;4.40;46.50;;;;;;5036702;28;20076;-22
2022/03/08 03:43:46;;;;;;;12.68;6.22;;;4.40;46.50;;;;;;5036402;28;20041;-21
2022/03/08 03:46:12;;;;;;;10.32;5.43;;;4.40;46.20;;;;;;5036435;28;20524;-20
2022/03/08 03:48:38;;;;;;;11.05;5.43;;;4.40;46.20;;;;;;5036612;28;20057;-21
2022/03/08 03:51:04;;;;;;;16.60;8.05;;;4.40;46.10;;;;;;5035074;28;20128;-21
2022/03/08 03:53:30;;;;;;;19.20;8.88;;;4.40;46.10;;;;;;5036318;28;20029;-23
2022/03/08 03:55:55;;;;;;;15.18;7.20;;;4.40;46.90;;;;;;5036583;28;20104;-21
2022/03/08 03:58:21;;;;;;;17.58;9.75;;;4.30;46.50;;;;;;5036101;28;20040;-22
2022/03/08 04:00:47;;;;;;;23.48;12.70;;;4.30;47.20;;;;;;5036647;28;20026;-21
2022/03/08 04:03:15;;;;;;;11.93;6.15;;;4.30;47.20;;;;;;5036046;28;20061;-21
2022/03/08 04:05:41;;;;;;;14.25;7.10;;;4.30;46.70;;;;;;5037226;28;20104;-21
2022/03/08 04:08:07;;;;;;;14.20;7.43;;;4.20;46.40;;;;;;5034722;28;20083;-22
2022/03/08 04:10:33;;;;;;;10.48;5.82;;;4.20;46.40;;;;;;5035734;28;20029;-21
2022/03/08 04:12:59;;;;;;;10.65;5.10;;;4.20;46.40;;;;;;5035859;28;20024;-21
2022/03/08 04:15:26;;;;;;;22.70;11.65;;;4.10;46.50;;;;;;5035897;28;20028;-21
2022/03/08 04:17:52;;;;;;;25.83;14.88;;;4.10;46.70;;;;;;5035200;28;20057;-21
2022/03/08 04:20:18;;;;;;;13.18;7.45;;;4.10;49.20;;;;;;5035503;28;20021;-23
2022/03/08 04:22:44;;;;;;;14.48;7.18;;;4.00;47.60;;;;;;5035954;28;20040;-22
2022/03/08 04:25:10;;;;;;;10.45;5.68;;;4.00;47.20;;;;;;5035682;28;20437;-21
2022/03/08 04:27:37;;;;;;;10.75;5.28;;;3.90;47.00;;;;;;5035652;28;20114;-21
2022/03/08 04:30:06;;;;;;;11.13;4.93;;;3.90;46.90;;;;;;5035580;28;20026;-22
2022/03/08 04:32:31;;;;;;;11.07;6.10;;;3.90;46.70;;;;;;5035445;28;20021;-21
2022/03/08 04:34:57;;;;;;;15.30;7.97;;;3.90;46.80;;;;;;5035807;28;20113;-21
2022/03/08 04:37:23;;;;;;;28.02;13.15;;;3.90;46.90;;;;;;5035428;28;20033;-22
2022/03/08 04:39:50;;;;;;;19.48;9.30;;;3.80;47.50;;;;;;5034274;28;20033;-22
2022/03/08 04:42:16;;;;;;;28.15;14.10;;;3.80;48.00;;;;;;5035122;28;20037;-22
2022/03/08 04:44:41;;;;;;;13.75;6.97;;;3.80;47.80;;;;;;5035724;28;20024;-21
2022/03/08 04:47:07;;;;;;;11.45;5.88;;;3.70;47.70;;;;;;5036392;28;20026;-21
2022/03/08 04:49:33;;;;;;;11.40;5.40;;;3.70;47.30;;;;;;5035592;28;20104;-20
2022/03/08 04:51:59;;;;;;;11.55;5.30;;;3.70;47.20;;;;;;5035523;28;20025;-21
2022/03/08 04:54:25;;;;;;;20.55;10.50;;;3.70;47.20;;;;;;5035017;28;20029;-22
2022/03/08 04:56:51;;;;;;;28.67;13.75;;;3.70;47.50;;;;;;5035087;28;20036;-21
2022/03/08 04:59:17;;;;;;;10.18;5.80;;;3.70;47.80;;;;;;5034190;28;20044;-21
2022/03/08 05:01:44;;;;;;;15.80;9.02;;;3.70;47.60;;;;;;5035284;28;20488;-21
2022/03/08 05:04:10;;;;;;;11.10;5.47;;;3.60;47.50;;;;;;5035168;28;20082;-22
2022/03/08 05:06:36;;;;;;;14.93;7.57;;;3.60;47.50;;;;;;5035008;28;20038;-22
2022/03/08 05:09:03;;;;;;;11.48;5.07;;;3.70;48.10;;;;;;5035123;28;20448;-21
2022/03/08 05:11:29;;;;;;;11.70;5.80;;;3.60;47.80;;;;;;5034805;28;20493;-21
2022/03/08 05:13:55;;;;;;;12.63;5.55;;;3.60;48.00;;;;;;5034808;28;20080;-21
2022/03/08 05:16:21;;;;;;;10.57;5.65;;;3.60;47.50;;;;;;5034607;28;20054;-21
2022/03/08 05:18:47;;;;;;;9.50;4.65;;;3.60;47.50;;;;;;5034426;28;20099;-21
2022/03/08 05:21:13;;;;;;;9.63;5.07;;;3.60;47.50;;;;;;5033993;28;20032;-21
2022/03/08 05:23:39;;;;;;;11.68;6.32;;;3.60;47.40;;;;;;5033862;28;20478;-21
2022/03/08 05:26:05;;;;;;;11.10;5.03;;;3.60;47.40;;;;;;5034179;28;20021;-22
2022/03/08 05:28:32;;;;;;;12.65;6.95;;;3.60;48.10;;;;;;5033405;28;20100;-21
2022/03/08 05:30:58;;;;;;;10.02;4.72;;;3.60;47.70;;;;;;5033402;28;20107;-21
2022/03/08 05:33:24;;;;;;;10.27;4.75;;;3.60;47.60;;;;;;5033500;28;20053;-21
2022/03/08 05:35:53;;;;;;;13.65;6.80;;;3.50;47.40;;;;;;5033787;28;20061;-21
2022/03/08 05:38:19;;;;;;;18.63;8.85;;;3.50;47.60;;;;;;5033220;28;20068;-21
2022/03/08 05:40:45;;;;;;;29.13;14.93;;;3.50;48.00;;;;;;5033680;28;20105;-21
2022/03/08 05:43:12;;;;;;;21.45;10.13;;;3.50;49.20;;;;;;5033240;28;20149;-21
2022/03/08 05:45:38;;;;;;;26.25;13.23;;;3.50;48.90;;;;;;5033336;28;20505;-21
2022/03/08 05:48:04;;;;;;;37.33;17.95;;;3.50;49.10;;;;;;5033262;28;20029;-21
2022/03/08 05:50:30;;;;;;;17.30;7.95;;;3.50;48.70;;;;;;5033594;28;20108;-21
2022/03/08 05:52:56;;;;;;;14.68;6.90;;;3.40;48.80;;;;;;5033158;28;20447;-21
2022/03/08 05:55:22;;;;;;;17.15;7.70;;;3.40;48.90;;;;;;5033440;28;20036;-21
2022/03/08 05:57:48;;;;;;;10.98;5.60;;;3.50;48.60;;;;;;5034022;28;20454;-21
2022/03/08 06:00:14;;;;;;;10.25;5.05;;;3.50;48.40;;;;;;5033502;28;20071;-22
2022/03/08 06:02:41;;;;;;;14.05;7.57;;;3.50;48.30;;;;;;5031722;28;20030;-21
2022/03/08 06:05:07;;;;;;;9.95;4.65;;;3.50;48.30;;;;;;5033338;28;20107;-21
2022/03/08 06:07:33;;;;;;;9.52;4.88;;;3.50;48.10;;;;;;5032954;28;20397;-21
2022/03/08 06:09:59;;;;;;;11.38;5.70;;;3.60;48.10;;;;;;5032910;28;20029;-21
2022/03/08 06:12:25;;;;;;;12.95;7.07;;;3.60;48.00;;;;;;5032827;28;20021;-21
2022/03/08 06:14:51;;;;;;;10.45;5.68;;;3.60;48.10;;;;;;5033198;28;20113;-21
2022/03/08 06:17:17;;;;;;;8.73;4.63;;;3.60;48.10;;;;;;5033033;28;20026;-22
2022/03/08 06:19:43;;;;;;;9.75;4.63;;;3.70;48.00;;;;;;4984121;28;1423904;-22
2022/03/08 06:22:09;;;;;;;10.90;5.60;;;3.80;48.10;;;;;;5033489;28;20079;-21
2022/03/08 06:24:35;;;;;;;16.98;8.40;;;3.80;48.30;;;;;;5033563;28;20036;-21
2022/03/08 06:27:01;;;;;;;11.50;6.10;;;3.90;48.20;;;;;;5034071;28;20416;-21
2022/03/08 06:29:27;;;;;;;16.23;7.90;;;4.00;48.10;;;;;;5033585;28;20117;-21
2022/03/08 06:31:53;;;;;;;18.63;7.82;;;4.10;48.60;;;;;;5033496;28;20030;-23
2022/03/08 06:34:19;;;;;;;30.80;16.02;;;4.30;48.50;;;;;;5031985;28;20120;-22
2022/03/08 06:36:44;;;;;;;20.40;10.75;;;4.40;49.00;;;;;;5033669;28;20135;-21
2022/03/08 06:39:10;;;;;;;31.98;15.43;;;4.60;49.20;;;;;;5032392;28;20552;-21
2022/03/08 06:41:36;;;;;;;27.33;13.85;;;4.70;49.40;;;;;;5033370;28;20024;-20
2022/03/08 06:44:02;;;;;;;29.13;15.95;;;4.90;48.80;;;;;;5033515;28;20029;-22
2022/03/08 06:46:28;;;;;;;18.30;9.05;;;5.00;48.80;;;;;;5033213;28;20025;-21
2022/03/08 06:48:54;;;;;;;20.20;10.40;;;5.20;47.90;;;;;;5033195;28;20121;-21
2022/03/08 06:51:21;;;;;;;23.40;12.48;;;5.30;48.20;;;;;;5033448;28;20036;-22
2022/03/08 06:53:47;;;;;;;23.92;12.80;;;5.40;47.80;;;;;;5033519;28;20025;-21
2022/03/08 06:56:12;;;;;;;23.65;12.70;;;5.50;47.90;;;;;;5032999;28;20033;-23
2022/03/08 06:58:38;;;;;;;24.60;13.00;;;5.60;47.90;;;;;;5032965;28;20504;-22
2022/03/08 07:01:04;;;;;;;29.55;14.15;;;5.70;48.00;;;;;;5033025;28;20036;-22
2022/03/08 07:03:30;;;;;;;19.33;11.00;;;5.80;47.90;;;;;;5032820;28;20033;-21
2022/03/08 07:05:56;;;;;;;28.25;15.30;;;5.90;47.40;;;;;;5032956;28;20030;-22
2022/03/08 07:08:22;;;;;;;32.63;16.30;;;5.90;47.20;;;;;;5032768;28;20084;-20
2022/03/08 07:10:48;;;;;;;26.50;14.27;;;6.00;47.60;;;;;;5033241;28;20026;-21
2022/03/08 07:13:13;;;;;;;25.67;13.68;;;6.10;47.50;;;;;;5033154;28;20025;-21
2022/03/08 07:15:39;;;;;;;24.08;12.27;;;6.20;47.60;;;;;;5033160;28;20032;-22
2022/03/08 07:18:05;;;;;;;24.92;13.70;;;6.30;47.20;;;;;;5032743;28;20057;-22
2022/03/08 07:20:31;;;;;;;24.10;13.25;;;6.40;47.10;;;;;;5032717;28;20370;-22
2022/03/08 07:22:57;;;;;;;31.80;16.33;;;6.50;46.70;;;;;;5033127;28;20030;-21
2022/03/08 07:25:23;;;;;;;29.48;14.98;;;6.50;46.80;;;;;;5032842;28;20026;-21
2022/03/08 07:27:49;;;;;;;26.70;14.63;;;6.60;46.60;;;;;;5032760;28;20039;-22
2022/03/08 07:30:14;;;;;;;32.58;16.27;;;6.70;46.60;;;;;;5032809;28;20030;-23
2022/03/08 07:32:40;;;;;;;33.75;17.02;;;6.80;46.50;;;;;;5032695;28;20089;-21
2022/03/08 07:35:07;;;;;;;23.65;13.70;;;6.90;46.30;;;;;;5033056;28;20037;-21
2022/03/08 07:37:35;;;;;;;31.15;16.70;;;6.90;45.90;;;;;;5032656;28;20022;-21
2022/03/08 07:40:01;;;;;;;27.17;14.27;;;7.00;46.00;;;;;;5033006;28;20086;-21
2022/03/08 07:42:27;;;;;;;29.63;14.63;;;7.10;45.90;;;;;;5032481;28;20029;-21
2022/03/08 07:44:54;;;;;;;27.67;14.93;;;7.10;45.60;;;;;;5032948;28;20033;-21
2022/03/08 07:47:20;;;;;;;22.50;13.50;;;7.20;45.50;;;;;;5032930;28;20032;-21
2022/03/08 07:49:46;;;;;;;26.27;13.75;;;7.20;45.10;;;;;;5032760;28;20038;-21
2022/03/08 07:52:13;;;;;;;29.52;15.88;;;7.30;44.30;;;;;;5032825;28;20030;-23
2022/03/08 07:54:39;;;;;;;27.10;13.27;;;7.30;44.30;;;;;;5036763;28;20025;-21
2022/03/08 07:57:05;;;;;;;22.92;12.23;;;7.40;44.00;;;;;;5036571;28;20072;-21
2022/03/08 07:59:31;;;;;;;30.27;16.42;;;7.50;44.00;;;;;;5036180;28;20025;-23
2022/03/08 08:01:58;;;;;;;27.20;14.82;;;7.50;42.80;;;;;;5036189;28;20025;-21
2022/03/08 08:04:24;;;;;;;27.08;14.30;;;7.50;41.80;;;;;;5036351;28;20075;-22
2022/03/08 08:06:51;;;;;;;26.00;14.18;;;7.60;42.20;;;;;;5036929;28;20026;-22
2022/03/08 08:09:17;;;;;;;23.80;13.80;;;7.70;41.20;;;;;;5036799;28;20026;-21
2022/03/08 08:11:43;;;;;;;23.33;13.60;;;7.80;40.60;;;;;;5036572;28;20035;-21
2022/03/08 08:14:09;;;;;;;21.63;12.02;;;7.90;40.50;;;;;;5036107;28;20021;-21
2022/03/08 08:16:35;;;;;;;19.30;9.93;;;8.00;40.80;;;;;;5035870;28;20049;-21
2022/03/08 08:19:01;;;;;;;19.02;10.40;;;8.20;41.00;;;;;;5035581;28;20564;-21
2022/03/08 08:21:27;;;;;;;18.02;10.20;;;8.30;39.00;;;;;;5035813;28;20032;-21
2022/03/08 08:23:52;;;;;;;17.05;9.38;;;8.50;37.60;;;;;;5035646;28;20087;-21
2022/03/08 08:26:19;;;;;;;17.60;9.52;;;8.70;37.80;;;;;;5035565;28;20049;-22
2022/03/08 08:28:45;;;;;;;14.68;8.55;;;8.80;37.90;;;;;;5036018;28;20100;-22
2022/03/08 08:31:10;;;;;;;15.20;7.75;;;9.00;37.70;;;;;;5035668;28;20502;-22
2022/03/08 08:33:36;;;;;;;18.15;10.07;;;9.20;38.40;;;;;;5035801;28;20036;-22
2022/03/08 08:36:03;;;;;;;16.83;9.15;;;9.40;35.50;;;;;;5035771;28;20036;-21
2022/03/08 08:38:29;;;;;;;18.23;9.55;;;9.60;36.60;;;;;;5035894;28;20024;-23
2022/03/08 08:40:55;;;;;;;15.95;9.52;;;9.70;36.20;;;;;;5035473;28;20034;-21
2022/03/08 08:43:21;;;;;;;15.05;7.45;;;9.90;35.70;;;;;;5035559;28;20120;-22
2022/03/08 08:45:52;;;;;;;16.70;8.55;;;10.10;36.20;;;;;;5035750;28;20041;-21
2022/03/08 08:48:20;;;;;;;16.45;9.38;;;10.30;36.10;;;;;;5035083;28;20022;-21
2022/03/08 08:50:46;;;;;;;16.38;8.75;;;10.50;35.50;;;;;;5035530;28;20021;-21
2022/03/08 08:53:12;;;;;;;19.15;9.77;;;10.70;35.00;;;;;;5035249;28;20029;-21
2022/03/08 08:55:41;;;;;;;14.85;7.38;;;10.80;35.40;;;;;;5035162;28;20029;-21
2022/03/08 08:58:07;;;;;;;15.27;8.10;;;11.00;35.30;;;;;;5035129;28;20447;-21
2022/03/08 09:00:34;;;;;;;13.70;8.70;;;11.10;34.20;;;;;;5035179;28;20116;-21
2022/03/08 09:03:01;;;;;;;11.65;7.32;;;11.40;35.30;;;;;;5034781;28;20033;-22
2022/03/08 09:05:28;;;;;;;17.05;10.32;;;11.60;35.00;;;;;;5033889;28;20033;-23
2022/03/08 09:07:54;;;;;;;15.50;8.90;;;11.80;34.40;;;;;;5035276;28;20079;-21
2022/03/08 09:10:23;;;;;;;15.75;9.07;;;12.00;33.80;;;;;;5034974;28;20486;-21
2022/03/08 09:12:51;;;;;;;16.60;9.30;;;12.20;33.10;;;;;;5035115;28;20029;-21
2022/03/08 09:15:22;;;;;;;18.58;10.60;;;12.30;32.80;;;;;;5035146;28;20394;-21
2022/03/08 09:17:48;;;;;;;14.02;8.38;;;12.40;31.80;;;;;;5034515;28;20461;-21
2022/03/08 09:20:14;;;;;;;15.63;9.30;;;12.50;32.40;;;;;;5034547;28;20026;-20
2022/03/08 09:22:41;;;;;;;13.57;7.53;;;12.70;31.80;;;;;;5034853;28;20032;-20
2022/03/08 09:25:08;;;;;;;16.90;9.02;;;12.90;33.00;;;;;;5034952;28;20071;-21
2022/03/08 09:27:34;;;;;;;14.35;8.73;;;13.10;32.70;;;;;;5034904;28;20030;-21
2022/03/08 09:30:05;;;;;;;17.55;9.98;;;13.30;31.90;;;;;;5034531;28;20036;-21
2022/03/08 09:32:31;;;;;;;19.00;10.90;;;13.50;32.10;;;;;;5034501;28;20037;-21
2022/03/08 09:34:57;;;;;;;9.18;6.15;;;13.60;31.50;;;;;;5034663;28;20025;-21
2022/03/08 09:37:23;;;;;;;14.68;9.27;;;13.80;32.40;;;;;;5034724;28;20123;-21
2022/03/08 09:39:50;;;;;;;16.45;9.52;;;14.00;32.40;;;;;;5033200;28;20052;-20
2022/03/08 09:42:17;;;;;;;15.23;9.15;;;14.20;31.70;;;;;;5034333;28;20116;-20
2022/03/08 09:44:43;;;;;;;18.20;9.68;;;14.40;32.00;;;;;;5034250;28;20036;-21
2022/03/08 09:47:10;;;;;;;14.15;8.60;;;14.60;31.60;;;;;;5034071;28;20044;-20
2022/03/08 09:49:36;;;;;;;17.65;11.43;;;14.70;31.40;;;;;;5034164;28;20029;-20
2022/03/08 09:52:02;;;;;;;15.70;9.10;;;14.80;31.00;;;;;;5034148;28;20021;-21
2022/03/08 09:54:28;;;;;;;17.02;10.40;;;15.00;31.10;;;;;;5034183;28;20034;-21
2022/03/08 09:56:54;;;;;;;18.42;10.65;;;15.10;31.00;;;;;;5033955;28;20107;-21
2022/03/08 09:59:20;;;;;;;17.00;9.48;;;15.20;31.10;;;;;;5034296;28;20025;-21
2022/03/08 10:01:47;;;;;;;18.02;10.43;;;15.30;31.20;;;;;;5034651;28;20104;-21
2022/03/08 10:04:20;;;;;;;22.27;12.13;;;15.40;30.60;;;;;;5033857;28;20056;-21
2022/03/08 10:06:51;;;;;;;23.02;13.63;;;15.50;29.40;;;;;;5034199;28;20021;-22
2022/03/08 10:09:21;;;;;;;18.00;11.05;;;15.40;28.80;;;;;;5034101;28;20029;-21
2022/03/08 10:11:55;;;;;;;19.10;12.10;;;15.20;29.90;;;;;;5033766;28;20481;-20
2022/03/08 10:14:38;;;;;;;18.95;12.38;;;15.20;29.40;;;;;;5033507;28;20025;-21
2022/03/08 10:17:09;;;;;;;14.13;9.30;;;15.40;29.90;;;;;;5033682;28;20053;-20
2022/03/08 10:19:45;;;;;;;17.45;10.93;;;15.50;30.90;;;;;;5033628;28;20050;-21
2022/03/08 10:22:23;;;;;;;14.13;9.18;;;15.70;29.60;;;;;;5034140;28;20100;-20
2022/03/08 10:24:49;;;;;;;15.88;9.93;;;15.90;29.50;;;;;;5033764;28;20477;-21
2022/03/08 10:27:16;;;;;;;17.10;10.98;;;15.90;29.60;;;;;;5033744;28;20040;-20
2022/03/08 10:29:43;;;;;;;21.13;12.80;;;16.10;29.60;;;;;;5033493;28;20112;-20
2022/03/08 10:32:18;;;;;;;18.48;11.02;;;16.30;28.60;;;;;;5033644;28;20244;-22
2022/03/08 10:34:47;;;;;;;14.70;9.07;;;16.40;29.40;;;;;;5033828;28;20036;-22
2022/03/08 10:37:20;;;;;;;19.38;12.57;;;16.50;29.30;;;;;;5033640;28;20064;-20
2022/03/08 10:39:57;;;;;;;21.92;12.00;;;16.60;29.00;;;;;;5033699;28;20489;-21
2022/03/08 10:42:28;;;;;;;17.60;11.30;;;16.70;28.00;;;;;;5033317;28;20148;-21
2022/03/08 10:45:29;;;;;;;17.05;11.50;;;16.90;29.10;;;;;;5033491;28;20057;-21
2022/03/08 10:47:55;;;;;;;19.05;11.98;;;16.80;28.70;;;;;;5032147;28;20063;-21
2022/03/08 10:50:28;;;;;;;17.63;10.93;;;16.90;28.70;;;;;;5033255;28;20025;-21
2022/03/08 10:52:56;;;;;;;21.90;13.98;;;17.00;28.90;;;;;;5033255;28;20037;-21
2022/03/08 10:55:34;;;;;;;23.63;14.25;;;17.00;27.50;;;;;;5033360;28;20021;-21
2022/03/08 10:58:08;;;;;;;21.45;13.18;;;16.90;27.80;;;;;;5033880;28;20028;-21
2022/03/08 11:00:38;;;;;;;16.05;10.93;;;17.10;28.40;;;;;;5033205;28;20022;-21
2022/03/08 11:03:13;;;;;;;17.98;11.80;;;17.30;29.10;;;;;;5033179;28;20057;-21
2022/03/08 11:05:45;;;;;;;21.35;12.98;;;17.50;28.70;;;;;;5031823;28;20487;-22
2022/03/08 11:08:12;;;;;;;21.10;13.02;;;17.60;28.00;;;;;;5033007;28;20390;-21
2022/03/08 11:10:39;;;;;;;20.70;13.05;;;17.80;28.40;;;;;;5033275;28;20029;-21
2022/03/08 11:13:07;;;;;;;18.35;11.60;;;17.90;28.00;;;;;;5033282;28;20029;-21
2022/03/08 11:15:36;;;;;;;17.65;12.27;;;18.10;27.70;;;;;;5032955;28;20033;-22
2022/03/08 11:18:07;;;;;;;15.20;10.32;;;18.40;27.80;;;;;;5032830;28;20106;-22
2022/03/08 11:20:34;;;;;;;18.38;12.57;;;18.50;27.90;;;;;;5032826;28;20025;-21
2022/03/08 11:23:00;;;;;;;20.35;13.70;;;18.80;27.60;;;;;;5033639;28;20044;-21
2022/03/08 11:25:36;;;;;;;14.18;9.10;;;18.90;27.30;;;;;;5032818;28;20025;-21
2022/03/08 11:28:04;;;;;;;18.25;11.95;;;19.10;27.70;;;;;;5034621;28;20033;-21
2022/03/08 11:30:52;;;;;;;18.55;12.60;;;19.30;27.20;;;;;;5037569;28;20037;-20
2022/03/08 11:33:39;;;;;;;19.38;13.32;;;19.40;27.30;;;;;;5036721;28;20036;-21
2022/03/08 11:36:39;;;;;;;18.15;12.20;;;19.60;24.90;;;;;;5036991;28;20398;-21
2022/03/08 11:39:24;;;;;;;15.38;10.60;;;19.90;25.30;;;;;;5014981;28;20061;-21
2022/03/08 11:41:53;;;;;;;15.40;10.93;;;20.00;26.30;;;;;;5014792;28;20076;-21
2022/03/08 11:44:27;;;;;;;22.77;14.63;;;20.10;26.60;;;;;;5014423;28;20046;-21
2022/03/08 11:47:15;;;;;;;21.00;14.55;;;19.90;24.90;;;;;;5014893;28;20045;-20
2022/03/08 11:49:43;;;;;;;17.35;11.48;;;19.80;24.10;;;;;;5014799;28;20378;-21
2022/03/08 11:52:11;;;;;;;16.98;11.57;;;19.90;26.10;;;;;;4998155;28;20042;-21
2022/03/08 11:54:37;;;;;;;19.27;13.02;;;19.90;26.20;;;;;;5014959;28;20038;-21
2022/03/08 11:57:03;;;;;;;17.52;12.55;;;19.80;25.90;;;;;;5014399;28;20469;-21
2022/03/08 11:59:29;;;;;;;20.25;13.55;;;19.80;25.70;;;;;;5014346;28;20037;-21
2022/03/08 12:01:55;;;;;;;21.02;15.43;;;19.80;25.50;;;;;;5014450;28;20071;-21
2022/03/08 12:04:21;;;;;;;16.98;11.52;;;19.70;25.00;;;;;;5014145;28;20034;-21
2022/03/08 12:06:49;;;;;;;18.77;13.35;;;19.70;25.90;;;;;;5014308;28;20030;-21
2022/03/08 12:09:18;;;;;;;19.38;13.07;;;19.80;25.90;;;;;;5014759;28;20117;-21
2022/03/08 12:12:01;;;;;;;21.15;13.48;;;20.00;26.10;;;;;;5014175;28;20030;-21
2022/03/08 12:14:36;;;;;;;18.55;12.68;;;20.10;24.60;;;;;;5023468;28;20385;-21
2022/03/08 12:17:17;;;;;;;20.10;12.88;;;20.10;25.70;;;;;;5036204;28;20104;-21
2022/03/08 12:19:47;;;;;;;19.05;13.38;;;20.30;25.30;;;;;;5035751;28;20144;-21
2022/03/08 12:22:21;;;;;;;22.13;14.40;;;20.40;25.80;;;;;;5035686;28;20025;-21
2022/03/08 12:24:51;;;;;;;16.75;12.00;;;20.20;24.90;;;;;;5035812;28;20154;-21
2022/03/08 12:27:19;;;;;;;21.77;13.65;;;20.50;25.70;;;;;;5035810;28;20504;-21
2022/03/08 12:29:54;;;;;;;22.08;15.50;;;20.50;25.50;;;;;;5035990;28;20029;-21
2022/03/08 12:32:32;;;;;;;20.23;14.38;;;20.30;23.30;;;;;;5035303;28;20032;-21
2022/03/08 12:35:03;;;;;;;22.52;16.02;;;20.20;24.60;;;;;;5035587;28;20033;-21
2022/03/08 12:37:36;;;;;;;16.52;10.82;;;20.30;24.90;;;;;;5035617;28;20492;-21
2022/03/08 12:40:07;;;;;;;23.80;15.45;;;20.50;25.40;;;;;;5035618;28;20029;-21